sensor_id;sensor_type;location;lat;lon;timestamp;P1;durP1;ratioP1;P2;durP2;ratioP2
26042;SDS011;13818;52.156;5.382;2023-09-07T00:01:52;7.13;;;3.75;;
26042;SDS011;13818;52.156;5.382;2023-09-07T00:04:18;6.53;;;3.67;;
26042;SDS011;13818;52.156;5.382;2023-09-07T00:06:46;5.72;;;3.50;;
26042;SDS011;13818;52.156;5.382;2023-09-07T00:09:12;6.25;;;3.60;;
26042;SDS011;13818;52.156;5.382;2023-09-07T00:11:41;6.55;;;3.78;;
26042;SDS011;13818;52.156;5.382;2023-09-07T00:14:08;6.05;;;3.92;;
26042;SDS011;13818;52.156;5.382;2023-09-07T00:16:35;5.72;;;3.30;;
26042;SDS011;13818;52.156;5.382;2023-09-07T00:21:29;6.68;;;3.35;;
26042;SDS011;13818;52.156;5.382;2023-09-07T00:23:56;6.22;;;3.33;;
26042;SDS011;13818;52.156;5.382;2023-09-07T00:26:22;6.38;;;3.38;;
26042;SDS011;13818;52.156;5.382;2023-09-07T00:28:49;8.60;;;3.35;;
26042;SDS011;13818;52.156;5.382;2023-09-07T00:31:17;5.00;;;3.47;;
26042;SDS011;13818;52.156;5.382;2023-09-07T00:33:43;6.20;;;3.53;;
26042;SDS011;13818;52.156;5.382;2023-09-07T00:36:09;7.05;;;5.80;;
26042;SDS011;13818;52.156;5.382;2023-09-07T00:38:36;5.10;;;3.22;;
26042;SDS011;13818;52.156;5.382;2023-09-07T00:41:02;5.38;;;3.28;;
26042;SDS011;13818;52.156;5.382;2023-09-07T00:43:29;5.38;;;3.55;;
26042;SDS011;13818;52.156;5.382;2023-09-07T00:45:56;5.38;;;3.50;;
26042;SDS011;13818;52.156;5.382;2023-09-07T00:48:23;7.43;;;3.80;;
26042;SDS011;13818;52.156;5.382;2023-09-07T00:50:50;8.18;;;4.60;;
26042;SDS011;13818;52.156;5.382;2023-09-07T00:53:16;5.25;;;3.33;;
26042;SDS011;13818;52.156;5.382;2023-09-07T00:55:44;5.53;;;3.92;;
26042;SDS011;13818;52.156;5.382;2023-09-07T00:58:10;5.93;;;3.63;;
26042;SDS011;13818;52.156;5.382;2023-09-07T01:00:37;5.10;;;3.53;;
26042;SDS011;13818;52.156;5.382;2023-09-07T01:03:05;5.85;;;3.38;;
26042;SDS011;13818;52.156;5.382;2023-09-07T01:05:43;9.13;;;4.35;;
26042;SDS011;13818;52.156;5.382;2023-09-07T01:08:17;5.47;;;3.83;;
26042;SDS011;13818;52.156;5.382;2023-09-07T01:10:48;7.15;;;3.92;;
26042;SDS011;13818;52.156;5.382;2023-09-07T01:13:15;7.18;;;4.22;;
26042;SDS011;13818;52.156;5.382;2023-09-07T01:15:41;11.40;;;3.92;;
26042;SDS011;13818;52.156;5.382;2023-09-07T01:18:08;7.95;;;3.92;;
26042;SDS011;13818;52.156;5.382;2023-09-07T01:20:37;6.43;;;3.85;;
26042;SDS011;13818;52.156;5.382;2023-09-07T01:23:08;6.25;;;4.03;;
26042;SDS011;13818;52.156;5.382;2023-09-07T01:25:34;6.03;;;4.00;;
26042;SDS011;13818;52.156;5.382;2023-09-07T01:28:01;7.35;;;4.32;;
26042;SDS011;13818;52.156;5.382;2023-09-07T01:30:28;5.18;;;3.45;;
26042;SDS011;13818;52.156;5.382;2023-09-07T01:32:54;5.75;;;3.83;;
26042;SDS011;13818;52.156;5.382;2023-09-07T01:35:21;5.15;;;3.85;;
26042;SDS011;13818;52.156;5.382;2023-09-07T01:37:49;6.30;;;4.10;;
26042;SDS011;13818;52.156;5.382;2023-09-07T01:40:16;8.80;;;3.95;;
26042;SDS011;13818;52.156;5.382;2023-09-07T01:42:43;7.68;;;3.60;;
26042;SDS011;13818;52.156;5.382;2023-09-07T01:45:09;7.57;;;4.57;;
26042;SDS011;13818;52.156;5.382;2023-09-07T01:47:36;7.00;;;3.88;;
26042;SDS011;13818;52.156;5.382;2023-09-07T01:50:02;5.72;;;4.35;;
26042;SDS011;13818;52.156;5.382;2023-09-07T01:52:29;6.55;;;4.25;;
26042;SDS011;13818;52.156;5.382;2023-09-07T01:54:56;5.70;;;4.13;;
26042;SDS011;13818;52.156;5.382;2023-09-07T01:57:24;5.57;;;3.90;;
26042;SDS011;13818;52.156;5.382;2023-09-07T01:59:51;7.38;;;4.45;;
26042;SDS011;13818;52.156;5.382;2023-09-07T02:02:17;8.40;;;4.70;;
26042;SDS011;13818;52.156;5.382;2023-09-07T02:04:43;5.57;;;4.22;;
26042;SDS011;13818;52.156;5.382;2023-09-07T02:07:11;6.75;;;4.28;;
26042;SDS011;13818;52.156;5.382;2023-09-07T02:09:37;6.40;;;3.83;;
26042;SDS011;13818;52.156;5.382;2023-09-07T02:12:04;7.90;;;4.32;;
26042;SDS011;13818;52.156;5.382;2023-09-07T02:14:32;7.72;;;4.55;;
26042;SDS011;13818;52.156;5.382;2023-09-07T02:16:59;10.88;;;4.68;;
26042;SDS011;13818;52.156;5.382;2023-09-07T02:19:25;8.05;;;4.50;;
26042;SDS011;13818;52.156;5.382;2023-09-07T02:21:52;9.68;;;4.20;;
26042;SDS011;13818;52.156;5.382;2023-09-07T02:24:19;8.07;;;3.83;;
26042;SDS011;13818;52.156;5.382;2023-09-07T02:26:45;5.55;;;4.45;;
26042;SDS011;13818;52.156;5.382;2023-09-07T02:29:12;5.25;;;4.18;;
26042;SDS011;13818;52.156;5.382;2023-09-07T02:31:39;6.50;;;4.50;;
26042;SDS011;13818;52.156;5.382;2023-09-07T02:34:06;7.60;;;4.35;;
26042;SDS011;13818;52.156;5.382;2023-09-07T02:36:33;6.20;;;4.28;;
26042;SDS011;13818;52.156;5.382;2023-09-07T02:38:59;7.35;;;4.53;;
26042;SDS011;13818;52.156;5.382;2023-09-07T02:41:26;6.85;;;4.15;;
26042;SDS011;13818;52.156;5.382;2023-09-07T02:43:53;7.72;;;4.45;;
26042;SDS011;13818;52.156;5.382;2023-09-07T02:46:19;5.43;;;4.07;;
26042;SDS011;13818;52.156;5.382;2023-09-07T02:48:47;6.43;;;4.50;;
26042;SDS011;13818;52.156;5.382;2023-09-07T02:51:13;6.68;;;4.07;;
26042;SDS011;13818;52.156;5.382;2023-09-07T02:53:40;5.18;;;3.47;;
26042;SDS011;13818;52.156;5.382;2023-09-07T02:56:06;6.63;;;3.90;;
26042;SDS011;13818;52.156;5.382;2023-09-07T02:58:33;5.90;;;4.40;;
26042;SDS011;13818;52.156;5.382;2023-09-07T03:00:59;6.60;;;4.25;;
26042;SDS011;13818;52.156;5.382;2023-09-07T03:03:25;6.68;;;4.03;;
26042;SDS011;13818;52.156;5.382;2023-09-07T03:05:53;7.25;;;4.82;;
26042;SDS011;13818;52.156;5.382;2023-09-07T03:08:20;6.88;;;4.50;;
26042;SDS011;13818;52.156;5.382;2023-09-07T03:10:46;8.45;;;4.65;;
26042;SDS011;13818;52.156;5.382;2023-09-07T03:13:12;11.27;;;4.53;;
26042;SDS011;13818;52.156;5.382;2023-09-07T03:15:39;6.20;;;4.15;;
26042;SDS011;13818;52.156;5.382;2023-09-07T03:18:05;6.28;;;4.60;;
26042;SDS011;13818;52.156;5.382;2023-09-07T03:20:32;6.10;;;4.28;;
26042;SDS011;13818;52.156;5.382;2023-09-07T03:23:00;5.63;;;3.92;;
26042;SDS011;13818;52.156;5.382;2023-09-07T03:25:28;5.63;;;3.85;;
26042;SDS011;13818;52.156;5.382;2023-09-07T03:27:54;6.95;;;4.43;;
26042;SDS011;13818;52.156;5.382;2023-09-07T03:30:21;8.25;;;4.57;;
26042;SDS011;13818;52.156;5.382;2023-09-07T03:32:47;11.65;;;4.80;;
26042;SDS011;13818;52.156;5.382;2023-09-07T03:35:14;8.85;;;4.40;;
26042;SDS011;13818;52.156;5.382;2023-09-07T03:37:41;5.45;;;4.20;;
26042;SDS011;13818;52.156;5.382;2023-09-07T03:40:09;7.32;;;4.32;;
26042;SDS011;13818;52.156;5.382;2023-09-07T03:42:36;9.75;;;4.07;;
26042;SDS011;13818;52.156;5.382;2023-09-07T03:45:04;5.40;;;4.15;;
26042;SDS011;13818;52.156;5.382;2023-09-07T03:47:31;6.25;;;4.18;;
26042;SDS011;13818;52.156;5.382;2023-09-07T03:49:58;6.30;;;4.32;;
26042;SDS011;13818;52.156;5.382;2023-09-07T03:52:25;4.95;;;3.47;;
26042;SDS011;13818;52.156;5.382;2023-09-07T03:54:53;8.20;;;4.65;;
26042;SDS011;13818;52.156;5.382;2023-09-07T03:57:21;9.40;;;4.20;;
26042;SDS011;13818;52.156;5.382;2023-09-07T04:04:43;9.30;;;3.97;;
26042;SDS011;13818;52.156;5.382;2023-09-07T04:07:09;8.27;;;3.80;;
26042;SDS011;13818;52.156;5.382;2023-09-07T04:09:36;9.15;;;4.75;;
26042;SDS011;13818;52.156;5.382;2023-09-07T04:12:02;6.95;;;4.88;;
26042;SDS011;13818;52.156;5.382;2023-09-07T04:14:31;6.85;;;4.03;;
26042;SDS011;13818;52.156;5.382;2023-09-07T04:16:57;7.40;;;4.35;;
26042;SDS011;13818;52.156;5.382;2023-09-07T04:19:24;7.53;;;4.38;;
26042;SDS011;13818;52.156;5.382;2023-09-07T04:21:50;7.35;;;4.32;;
26042;SDS011;13818;52.156;5.382;2023-09-07T04:24:17;7.32;;;4.75;;
26042;SDS011;13818;52.156;5.382;2023-09-07T04:26:43;8.05;;;4.43;;
26042;SDS011;13818;52.156;5.382;2023-09-07T04:29:09;6.88;;;4.57;;
26042;SDS011;13818;52.156;5.382;2023-09-07T04:31:38;6.68;;;4.03;;
26042;SDS011;13818;52.156;5.382;2023-09-07T04:34:04;9.57;;;4.53;;
26042;SDS011;13818;52.156;5.382;2023-09-07T04:36:31;6.68;;;4.32;;
26042;SDS011;13818;52.156;5.382;2023-09-07T04:38:57;8.40;;;5.10;;
26042;SDS011;13818;52.156;5.382;2023-09-07T04:41:24;8.65;;;4.68;;
26042;SDS011;13818;52.156;5.382;2023-09-07T04:43:50;7.20;;;4.78;;
26042;SDS011;13818;52.156;5.382;2023-09-07T04:46:17;6.68;;;4.45;;
26042;SDS011;13818;52.156;5.382;2023-09-07T04:48:49;7.57;;;4.70;;
26042;SDS011;13818;52.156;5.382;2023-09-07T04:51:15;7.07;;;4.55;;
26042;SDS011;13818;52.156;5.382;2023-09-07T04:53:42;7.20;;;4.20;;
26042;SDS011;13818;52.156;5.382;2023-09-07T04:56:08;6.82;;;4.45;;
26042;SDS011;13818;52.156;5.382;2023-09-07T04:58:35;7.80;;;4.20;;
26042;SDS011;13818;52.156;5.382;2023-09-07T05:01:02;7.80;;;5.38;;
26042;SDS011;13818;52.156;5.382;2023-09-07T05:03:28;7.80;;;4.75;;
26042;SDS011;13818;52.156;5.382;2023-09-07T05:05:57;8.27;;;5.20;;
26042;SDS011;13818;52.156;5.382;2023-09-07T05:08:23;9.32;;;5.15;;
26042;SDS011;13818;52.156;5.382;2023-09-07T05:10:54;6.97;;;4.47;;
26042;SDS011;13818;52.156;5.382;2023-09-07T05:13:21;7.97;;;4.63;;
26042;SDS011;13818;52.156;5.382;2023-09-07T05:15:48;8.85;;;4.82;;
26042;SDS011;13818;52.156;5.382;2023-09-07T05:18:15;5.30;;;4.18;;
26042;SDS011;13818;52.156;5.382;2023-09-07T05:20:42;6.57;;;4.80;;
26042;SDS011;13818;52.156;5.382;2023-09-07T05:23:11;9.57;;;4.65;;
26042;SDS011;13818;52.156;5.382;2023-09-07T05:25:42;7.38;;;4.18;;
26042;SDS011;13818;52.156;5.382;2023-09-07T05:28:09;8.32;;;4.68;;
26042;SDS011;13818;52.156;5.382;2023-09-07T05:30:35;7.22;;;4.10;;
26042;SDS011;13818;52.156;5.382;2023-09-07T05:33:02;7.68;;;3.95;;
26042;SDS011;13818;52.156;5.382;2023-09-07T05:35:29;9.50;;;3.88;;
26042;SDS011;13818;52.156;5.382;2023-09-07T05:37:57;4.50;;;3.17;;
26042;SDS011;13818;52.156;5.382;2023-09-07T05:40:25;5.65;;;3.88;;
26042;SDS011;13818;52.156;5.382;2023-09-07T05:42:51;6.50;;;3.45;;
26042;SDS011;13818;52.156;5.382;2023-09-07T05:45:18;7.55;;;3.45;;
26042;SDS011;13818;52.156;5.382;2023-09-07T05:47:44;6.53;;;3.42;;
26042;SDS011;13818;52.156;5.382;2023-09-07T05:50:11;6.18;;;3.60;;
26042;SDS011;13818;52.156;5.382;2023-09-07T05:52:37;8.13;;;3.55;;
26042;SDS011;13818;52.156;5.382;2023-09-07T05:55:04;5.10;;;3.20;;
26042;SDS011;13818;52.156;5.382;2023-09-07T05:57:32;5.53;;;3.45;;
26042;SDS011;13818;52.156;5.382;2023-09-07T05:59:59;5.55;;;2.97;;
26042;SDS011;13818;52.156;5.382;2023-09-07T06:02:25;5.00;;;3.20;;
26042;SDS011;13818;52.156;5.382;2023-09-07T06:04:52;6.10;;;2.92;;
26042;SDS011;13818;52.156;5.382;2023-09-07T06:07:18;11.80;;;3.70;;
26042;SDS011;13818;52.156;5.382;2023-09-07T06:09:45;5.32;;;3.70;;
26042;SDS011;13818;52.156;5.382;2023-09-07T06:12:12;7.40;;;4.03;;
26042;SDS011;13818;52.156;5.382;2023-09-07T06:14:40;6.32;;;3.45;;
26042;SDS011;13818;52.156;5.382;2023-09-07T06:19:33;4.72;;;3.28;;
26042;SDS011;13818;52.156;5.382;2023-09-07T06:21:59;5.60;;;4.43;;
26042;SDS011;13818;52.156;5.382;2023-09-07T06:24:26;5.15;;;3.35;;
26042;SDS011;13818;52.156;5.382;2023-09-07T06:26:52;7.28;;;3.55;;
26042;SDS011;13818;52.156;5.382;2023-09-07T06:29:18;7.53;;;4.22;;
26042;SDS011;13818;52.156;5.382;2023-09-07T06:31:46;9.20;;;3.88;;
26042;SDS011;13818;52.156;5.382;2023-09-07T06:34:15;6.20;;;3.40;;
26042;SDS011;13818;52.156;5.382;2023-09-07T06:36:41;4.82;;;3.50;;
26042;SDS011;13818;52.156;5.382;2023-09-07T06:39:07;6.25;;;3.85;;
26042;SDS011;13818;52.156;5.382;2023-09-07T06:41:34;4.90;;;3.58;;
26042;SDS011;13818;52.156;5.382;2023-09-07T06:44:00;7.10;;;3.38;;
26042;SDS011;13818;52.156;5.382;2023-09-07T06:46:27;4.57;;;3.58;;
26042;SDS011;13818;52.156;5.382;2023-09-07T06:48:55;6.38;;;3.92;;
26042;SDS011;13818;52.156;5.382;2023-09-07T06:51:21;6.60;;;4.10;;
26042;SDS011;13818;52.156;5.382;2023-09-07T06:53:48;8.88;;;5.50;;
26042;SDS011;13818;52.156;5.382;2023-09-07T06:56:15;6.00;;;3.85;;
26042;SDS011;13818;52.156;5.382;2023-09-07T06:58:41;6.97;;;3.78;;
26042;SDS011;13818;52.156;5.382;2023-09-07T07:01:08;5.63;;;4.10;;
26042;SDS011;13818;52.156;5.382;2023-09-07T07:03:34;5.00;;;3.72;;
26042;SDS011;13818;52.156;5.382;2023-09-07T07:06:02;5.60;;;3.85;;
26042;SDS011;13818;52.156;5.382;2023-09-07T07:08:29;7.65;;;3.92;;
26042;SDS011;13818;52.156;5.382;2023-09-07T07:10:55;7.97;;;4.47;;
26042;SDS011;13818;52.156;5.382;2023-09-07T07:13:22;6.03;;;4.07;;
26042;SDS011;13818;52.156;5.382;2023-09-07T07:15:48;5.97;;;4.72;;
26042;SDS011;13818;52.156;5.382;2023-09-07T07:18:15;5.90;;;4.10;;
26042;SDS011;13818;52.156;5.382;2023-09-07T07:20:41;5.82;;;3.67;;
26042;SDS011;13818;52.156;5.382;2023-09-07T07:23:11;6.07;;;3.83;;
26042;SDS011;13818;52.156;5.382;2023-09-07T07:25:38;6.47;;;3.65;;
26042;SDS011;13818;52.156;5.382;2023-09-07T07:28:05;7.18;;;3.83;;
26042;SDS011;13818;52.156;5.382;2023-09-07T07:30:31;6.05;;;3.90;;
26042;SDS011;13818;52.156;5.382;2023-09-07T07:32:58;5.72;;;3.78;;
26042;SDS011;13818;52.156;5.382;2023-09-07T07:35:25;8.57;;;4.38;;
26042;SDS011;13818;52.156;5.382;2023-09-07T07:37:51;5.07;;;3.47;;
26042;SDS011;13818;52.156;5.382;2023-09-07T07:40:19;4.70;;;3.65;;
26042;SDS011;13818;52.156;5.382;2023-09-07T07:42:46;4.88;;;3.50;;
26042;SDS011;13818;52.156;5.382;2023-09-07T07:47:40;8.38;;;4.20;;
26042;SDS011;13818;52.156;5.382;2023-09-07T07:50:07;7.18;;;4.30;;
26042;SDS011;13818;52.156;5.382;2023-09-07T07:52:34;6.90;;;3.80;;
26042;SDS011;13818;52.156;5.382;2023-09-07T07:55:00;7.32;;;4.22;;
26042;SDS011;13818;52.156;5.382;2023-09-07T07:57:28;7.13;;;4.15;;
26042;SDS011;13818;52.156;5.382;2023-09-07T07:59:55;7.00;;;3.83;;
26042;SDS011;13818;52.156;5.382;2023-09-07T08:02:22;8.13;;;4.00;;
26042;SDS011;13818;52.156;5.382;2023-09-07T08:04:48;5.63;;;3.92;;
26042;SDS011;13818;52.156;5.382;2023-09-07T08:07:15;5.30;;;3.95;;
26042;SDS011;13818;52.156;5.382;2023-09-07T08:09:41;5.35;;;3.25;;
26042;SDS011;13818;52.156;5.382;2023-09-07T08:12:07;7.70;;;4.20;;
26042;SDS011;13818;52.156;5.382;2023-09-07T08:14:36;8.80;;;4.45;;
26042;SDS011;13818;52.156;5.382;2023-09-07T08:17:02;7.05;;;3.88;;
26042;SDS011;13818;52.156;5.382;2023-09-07T08:19:29;8.30;;;4.00;;
26042;SDS011;13818;52.156;5.382;2023-09-07T08:21:56;7.50;;;4.40;;
26042;SDS011;13818;52.156;5.382;2023-09-07T08:24:23;5.85;;;4.18;;
26042;SDS011;13818;52.156;5.382;2023-09-07T08:26:49;4.82;;;3.22;;
26042;SDS011;13818;52.156;5.382;2023-09-07T08:29:16;5.47;;;3.78;;
26042;SDS011;13818;52.156;5.382;2023-09-07T08:31:46;5.88;;;3.72;;
26042;SDS011;13818;52.156;5.382;2023-09-07T08:34:13;6.85;;;3.45;;
26042;SDS011;13818;52.156;5.382;2023-09-07T08:36:40;6.75;;;3.90;;
26042;SDS011;13818;52.156;5.382;2023-09-07T08:39:07;5.97;;;3.33;;
26042;SDS011;13818;52.156;5.382;2023-09-07T08:41:37;6.22;;;3.22;;
26042;SDS011;13818;52.156;5.382;2023-09-07T08:44:09;6.07;;;3.47;;
26042;SDS011;13818;52.156;5.382;2023-09-07T08:49:04;7.53;;;3.38;;
26042;SDS011;13818;52.156;5.382;2023-09-07T08:51:31;5.00;;;3.45;;
26042;SDS011;13818;52.156;5.382;2023-09-07T08:53:57;8.07;;;3.65;;
26042;SDS011;13818;52.156;5.382;2023-09-07T08:56:24;6.25;;;3.25;;
26042;SDS011;13818;52.156;5.382;2023-09-07T08:58:51;4.22;;;2.63;;
26042;SDS011;13818;52.156;5.382;2023-09-07T09:01:17;3.90;;;2.80;;
26042;SDS011;13818;52.156;5.382;2023-09-07T09:03:46;5.07;;;2.28;;
26042;SDS011;13818;52.156;5.382;2023-09-07T09:06:16;3.70;;;2.42;;
26042;SDS011;13818;52.156;5.382;2023-09-07T09:08:43;5.43;;;2.45;;
26042;SDS011;13818;52.156;5.382;2023-09-07T09:11:11;4.00;;;2.55;;
26042;SDS011;13818;52.156;5.382;2023-09-07T09:13:39;3.35;;;2.58;;
26042;SDS011;13818;52.156;5.382;2023-09-07T09:16:05;3.10;;;2.10;;
26042;SDS011;13818;52.156;5.382;2023-09-07T09:18:32;4.43;;;2.17;;
26042;SDS011;13818;52.156;5.382;2023-09-07T09:20:58;3.70;;;2.55;;
26042;SDS011;13818;52.156;5.382;2023-09-07T09:23:31;4.15;;;2.80;;
26042;SDS011;13818;52.156;5.382;2023-09-07T09:25:59;4.45;;;2.15;;
26042;SDS011;13818;52.156;5.382;2023-09-07T09:28:25;4.70;;;2.60;;
26042;SDS011;13818;52.156;5.382;2023-09-07T09:30:52;4.78;;;2.63;;
26042;SDS011;13818;52.156;5.382;2023-09-07T09:33:19;5.63;;;2.53;;
26042;SDS011;13818;52.156;5.382;2023-09-07T09:35:46;6.13;;;2.22;;
26042;SDS011;13818;52.156;5.382;2023-09-07T09:38:13;2.83;;;2.30;;
26042;SDS011;13818;52.156;5.382;2023-09-07T09:40:41;4.68;;;2.45;;
26042;SDS011;13818;52.156;5.382;2023-09-07T09:43:08;4.20;;;2.03;;
26042;SDS011;13818;52.156;5.382;2023-09-07T09:45:36;3.25;;;2.00;;
26042;SDS011;13818;52.156;5.382;2023-09-07T09:48:03;3.33;;;2.15;;
26042;SDS011;13818;52.156;5.382;2023-09-07T09:50:31;3.33;;;1.88;;
26042;SDS011;13818;52.156;5.382;2023-09-07T09:53:02;4.43;;;2.13;;
26042;SDS011;13818;52.156;5.382;2023-09-07T09:55:31;4.00;;;2.20;;
26042;SDS011;13818;52.156;5.382;2023-09-07T09:57:59;4.25;;;1.90;;
26042;SDS011;13818;52.156;5.382;2023-09-07T10:00:26;2.65;;;2.10;;
26042;SDS011;13818;52.156;5.382;2023-09-07T10:03:01;4.75;;;2.20;;
26042;SDS011;13818;52.156;5.382;2023-09-07T10:05:31;6.32;;;2.10;;
26042;SDS011;13818;52.156;5.382;2023-09-07T10:08:02;6.20;;;1.92;;
26042;SDS011;13818;52.156;5.382;2023-09-07T10:10:34;3.88;;;2.30;;
26042;SDS011;13818;52.156;5.382;2023-09-07T10:13:03;3.83;;;2.30;;
26042;SDS011;13818;52.156;5.382;2023-09-07T10:15:31;6.45;;;2.00;;
26042;SDS011;13818;52.156;5.382;2023-09-07T10:20:34;3.80;;;2.40;;
26042;SDS011;13818;52.156;5.382;2023-09-07T10:23:13;8.00;;;2.35;;
26042;SDS011;13818;52.156;5.382;2023-09-07T10:25:40;4.40;;;2.50;;
26042;SDS011;13818;52.156;5.382;2023-09-07T10:28:17;3.25;;;2.30;;
26042;SDS011;13818;52.156;5.382;2023-09-07T10:30:45;3.42;;;2.28;;
26042;SDS011;13818;52.156;5.382;2023-09-07T10:33:18;3.80;;;1.77;;
26042;SDS011;13818;52.156;5.382;2023-09-07T10:35:45;4.00;;;2.28;;
26042;SDS011;13818;52.156;5.382;2023-09-07T10:38:13;4.10;;;2.25;;
26042;SDS011;13818;52.156;5.382;2023-09-07T10:43:07;4.28;;;2.03;;
26042;SDS011;13818;52.156;5.382;2023-09-07T10:45:35;4.93;;;2.25;;
26042;SDS011;13818;52.156;5.382;2023-09-07T10:48:01;3.05;;;2.25;;
26042;SDS011;13818;52.156;5.382;2023-09-07T10:50:29;3.28;;;2.38;;
26042;SDS011;13818;52.156;5.382;2023-09-07T10:52:56;5.00;;;2.40;;
26042;SDS011;13818;52.156;5.382;2023-09-07T10:55:22;3.40;;;1.95;;
26042;SDS011;13818;52.156;5.382;2023-09-07T10:57:48;4.15;;;2.50;;
26042;SDS011;13818;52.156;5.382;2023-09-07T11:00:15;3.45;;;2.55;;
26042;SDS011;13818;52.156;5.382;2023-09-07T11:02:43;5.20;;;1.85;;
26042;SDS011;13818;52.156;5.382;2023-09-07T11:05:10;2.40;;;2.08;;
26042;SDS011;13818;52.156;5.382;2023-09-07T11:07:37;4.95;;;2.22;;
26042;SDS011;13818;52.156;5.382;2023-09-07T11:10:06;6.38;;;2.33;;
26042;SDS011;13818;52.156;5.382;2023-09-07T11:12:36;4.63;;;2.05;;
26042;SDS011;13818;52.156;5.382;2023-09-07T11:15:04;4.43;;;2.22;;
26042;SDS011;13818;52.156;5.382;2023-09-07T11:17:31;2.97;;;2.15;;
26042;SDS011;13818;52.156;5.382;2023-09-07T11:20:02;3.25;;;1.92;;
26042;SDS011;13818;52.156;5.382;2023-09-07T11:22:30;3.78;;;2.28;;
26042;SDS011;13818;52.156;5.382;2023-09-07T11:24:58;2.50;;;1.90;;
26042;SDS011;13818;52.156;5.382;2023-09-07T11:27:28;3.60;;;2.10;;
26042;SDS011;13818;52.156;5.382;2023-09-07T11:29:55;2.83;;;1.83;;
26042;SDS011;13818;52.156;5.382;2023-09-07T11:32:22;4.25;;;2.13;;
26042;SDS011;13818;52.156;5.382;2023-09-07T11:34:49;4.22;;;2.03;;
26042;SDS011;13818;52.156;5.382;2023-09-07T11:37:22;2.55;;;1.80;;
26042;SDS011;13818;52.156;5.382;2023-09-07T11:39:49;2.50;;;1.90;;
26042;SDS011;13818;52.156;5.382;2023-09-07T11:42:16;3.22;;;2.10;;
26042;SDS011;13818;52.156;5.382;2023-09-07T11:44:42;4.22;;;2.17;;
26042;SDS011;13818;52.156;5.382;2023-09-07T11:47:08;2.78;;;1.85;;
26042;SDS011;13818;52.156;5.382;2023-09-07T11:49:35;2.97;;;2.17;;
26042;SDS011;13818;52.156;5.382;2023-09-07T11:52:01;3.20;;;2.30;;
26042;SDS011;13818;52.156;5.382;2023-09-07T11:54:30;7.45;;;2.33;;
26042;SDS011;13818;52.156;5.382;2023-09-07T11:56:56;3.30;;;2.25;;
26042;SDS011;13818;52.156;5.382;2023-09-07T11:59:23;5.32;;;2.50;;
26042;SDS011;13818;52.156;5.382;2023-09-07T12:01:49;5.88;;;2.30;;
26042;SDS011;13818;52.156;5.382;2023-09-07T12:04:16;4.38;;;2.28;;
26042;SDS011;13818;52.156;5.382;2023-09-07T12:06:42;5.57;;;2.17;;
26042;SDS011;13818;52.156;5.382;2023-09-07T12:09:09;4.00;;;2.42;;
26042;SDS011;13818;52.156;5.382;2023-09-07T12:11:37;4.00;;;2.55;;
26042;SDS011;13818;52.156;5.382;2023-09-07T12:14:04;3.58;;;2.53;;
26042;SDS011;13818;52.156;5.382;2023-09-07T12:16:30;3.83;;;2.47;;
26042;SDS011;13818;52.156;5.382;2023-09-07T12:18:57;7.93;;;3.10;;
26042;SDS011;13818;52.156;5.382;2023-09-07T12:21:23;3.40;;;2.42;;
26042;SDS011;13818;52.156;5.382;2023-09-07T12:23:50;4.70;;;2.67;;
26042;SDS011;13818;52.156;5.382;2023-09-07T12:26:16;3.20;;;2.20;;
26042;SDS011;13818;52.156;5.382;2023-09-07T12:28:47;3.40;;;1.85;;
26042;SDS011;13818;52.156;5.382;2023-09-07T12:31:13;4.72;;;2.40;;
26042;SDS011;13818;52.156;5.382;2023-09-07T12:33:40;4.13;;;2.40;;
26042;SDS011;13818;52.156;5.382;2023-09-07T12:36:06;4.72;;;2.00;;
26042;SDS011;13818;52.156;5.382;2023-09-07T12:38:35;4.47;;;2.30;;
26042;SDS011;13818;52.156;5.382;2023-09-07T12:41:01;2.78;;;2.22;;
26042;SDS011;13818;52.156;5.382;2023-09-07T12:43:28;3.33;;;2.60;;
26042;SDS011;13818;52.156;5.382;2023-09-07T12:45:55;4.43;;;2.45;;
26042;SDS011;13818;52.156;5.382;2023-09-07T12:48:22;3.20;;;1.95;;
26042;SDS011;13818;52.156;5.382;2023-09-07T12:50:48;3.10;;;2.10;;
26042;SDS011;13818;52.156;5.382;2023-09-07T12:53:15;3.72;;;2.30;;
26042;SDS011;13818;52.156;5.382;2023-09-07T12:55:41;3.97;;;1.80;;
26042;SDS011;13818;52.156;5.382;2023-09-07T13:00:36;2.95;;;1.90;;
26042;SDS011;13818;52.156;5.382;2023-09-07T13:03:04;4.45;;;1.90;;
26042;SDS011;13818;52.156;5.382;2023-09-07T13:05:31;3.83;;;2.03;;
26042;SDS011;13818;52.156;5.382;2023-09-07T13:07:57;5.85;;;2.20;;
26042;SDS011;13818;52.156;5.382;2023-09-07T13:10:24;2.90;;;2.05;;
26042;SDS011;13818;52.156;5.382;2023-09-07T13:12:51;3.50;;;2.20;;
26042;SDS011;13818;52.156;5.382;2023-09-07T13:15:17;2.75;;;1.80;;
26042;SDS011;13818;52.156;5.382;2023-09-07T13:17:44;2.65;;;2.10;;
26042;SDS011;13818;52.156;5.382;2023-09-07T13:20:12;3.17;;;2.40;;
26042;SDS011;13818;52.156;5.382;2023-09-07T13:22:38;3.00;;;1.85;;
26042;SDS011;13818;52.156;5.382;2023-09-07T13:25:05;2.65;;;2.03;;
26042;SDS011;13818;52.156;5.382;2023-09-07T13:27:32;4.13;;;2.00;;
26042;SDS011;13818;52.156;5.382;2023-09-07T13:29:58;3.65;;;2.08;;
26042;SDS011;13818;52.156;5.382;2023-09-07T13:32:26;6.07;;;2.35;;
26042;SDS011;13818;52.156;5.382;2023-09-07T13:34:52;4.45;;;2.45;;
26042;SDS011;13818;52.156;5.382;2023-09-07T13:37:20;3.58;;;2.33;;
26042;SDS011;13818;52.156;5.382;2023-09-07T13:39:47;4.22;;;2.22;;
26042;SDS011;13818;52.156;5.382;2023-09-07T13:42:14;3.55;;;2.15;;
26042;SDS011;13818;52.156;5.382;2023-09-07T13:44:40;3.55;;;2.30;;
26042;SDS011;13818;52.156;5.382;2023-09-07T13:47:07;3.25;;;2.20;;
26042;SDS011;13818;52.156;5.382;2023-09-07T13:49:34;4.60;;;2.15;;
26042;SDS011;13818;52.156;5.382;2023-09-07T13:52:00;3.22;;;2.22;;
26042;SDS011;13818;52.156;5.382;2023-09-07T13:54:28;5.70;;;2.38;;
26042;SDS011;13818;52.156;5.382;2023-09-07T13:56:55;2.67;;;1.67;;
26042;SDS011;13818;52.156;5.382;2023-09-07T13:59:22;3.00;;;2.05;;
26042;SDS011;13818;52.156;5.382;2023-09-07T14:01:50;2.40;;;1.90;;
26042;SDS011;13818;52.156;5.382;2023-09-07T14:04:17;3.78;;;2.20;;
26042;SDS011;13818;52.156;5.382;2023-09-07T14:06:43;4.40;;;2.20;;
26042;SDS011;13818;52.156;5.382;2023-09-07T14:09:09;3.47;;;2.20;;
26042;SDS011;13818;52.156;5.382;2023-09-07T14:11:37;3.55;;;2.10;;
26042;SDS011;13818;52.156;5.382;2023-09-07T14:14:04;3.30;;;2.33;;
26042;SDS011;13818;52.156;5.382;2023-09-07T14:16:31;3.13;;;2.10;;
26042;SDS011;13818;52.156;5.382;2023-09-07T14:21:25;4.65;;;2.30;;
26042;SDS011;13818;52.156;5.382;2023-09-07T14:23:51;4.60;;;2.33;;
26042;SDS011;13818;52.156;5.382;2023-09-07T14:26:17;6.50;;;2.40;;
26042;SDS011;13818;52.156;5.382;2023-09-07T14:28:45;4.03;;;2.40;;
26042;SDS011;13818;52.156;5.382;2023-09-07T14:31:12;2.88;;;1.92;;
26042;SDS011;13818;52.156;5.382;2023-09-07T14:33:38;2.83;;;1.92;;
26042;SDS011;13818;52.156;5.382;2023-09-07T14:36:07;2.88;;;2.00;;
26042;SDS011;13818;52.156;5.382;2023-09-07T14:38:34;3.95;;;2.45;;
26042;SDS011;13818;52.156;5.382;2023-09-07T14:41:05;3.58;;;2.30;;
26042;SDS011;13818;52.156;5.382;2023-09-07T14:43:32;4.22;;;2.28;;
26042;SDS011;13818;52.156;5.382;2023-09-07T14:46:00;3.75;;;2.42;;
26042;SDS011;13818;52.156;5.382;2023-09-07T14:48:26;4.47;;;2.05;;
26042;SDS011;13818;52.156;5.382;2023-09-07T14:50:53;3.25;;;2.38;;
26042;SDS011;13818;52.156;5.382;2023-09-07T14:53:19;5.15;;;2.67;;
26042;SDS011;13818;52.156;5.382;2023-09-07T14:55:46;4.35;;;2.30;;
26042;SDS011;13818;52.156;5.382;2023-09-07T14:58:12;2.72;;;1.85;;
26042;SDS011;13818;52.156;5.382;2023-09-07T15:00:39;3.28;;;2.10;;
26042;SDS011;13818;52.156;5.382;2023-09-07T15:03:07;3.88;;;2.25;;
26042;SDS011;13818;52.156;5.382;2023-09-07T15:05:33;4.20;;;2.22;;
26042;SDS011;13818;52.156;5.382;2023-09-07T15:07:59;2.60;;;1.98;;
26042;SDS011;13818;52.156;5.382;2023-09-07T15:10:27;4.10;;;2.35;;
26042;SDS011;13818;52.156;5.382;2023-09-07T15:12:54;4.82;;;2.30;;